createdAt,value
2022-09-14T00:00:21.227Z,5.4
2022-09-14T00:01:29.803Z,7
2022-09-14T00:02:38.195Z,7
2022-09-14T00:03:46.412Z,7
2022-09-14T00:04:54.948Z,6.5
2022-09-14T00:06:03.256Z,6.5
2022-09-14T00:07:11.604Z,6.5
2022-09-14T00:08:20.114Z,6
2022-09-14T00:09:28.444Z,6
2022-09-14T00:10:36.774Z,6
2022-09-14T00:11:45.310Z,7.6
2022-09-14T00:12:53.623Z,7.6
2022-09-14T00:14:01.981Z,7.6
2022-09-14T00:15:10.510Z,6
2022-09-14T00:16:18.876Z,6
2022-09-14T00:17:27.161Z,6
2022-09-14T00:18:35.707Z,6.3
2022-09-14T00:19:44.063Z,6.3
2022-09-14T00:20:52.407Z,6.3
2022-09-14T00:22:00.950Z,7.2
2022-09-14T00:23:09.293Z,7.2
2022-09-14T00:24:17.577Z,7.2
2022-09-14T00:25:26.116Z,5.8
2022-09-14T00:26:34.455Z,5.8
2022-09-14T00:27:42.767Z,5.8
2022-09-14T00:28:51.286Z,7.8
2022-09-14T00:29:59.629Z,7.8
2022-09-14T00:31:07.945Z,7.8
2022-09-14T00:32:16.540Z,5.6
2022-09-14T00:33:24.821Z,5.6
2022-09-14T00:34:33.143Z,5.6
2022-09-14T00:35:41.715Z,6.4
2022-09-14T00:36:50.044Z,6.4
2022-09-14T00:37:58.359Z,6.4
2022-09-14T00:39:06.962Z,6
2022-09-14T00:40:15.367Z,6
2022-09-14T00:41:23.584Z,6
2022-09-14T00:42:32.121Z,7.1
2022-09-14T00:43:40.462Z,7.1
2022-09-14T00:44:48.812Z,7.1
2022-09-14T00:45:57.361Z,6.3
2022-09-14T00:47:05.684Z,6.3
2022-09-14T00:48:14.016Z,6.3
2022-09-14T00:49:22.540Z,5.9
2022-09-14T00:50:30.883Z,5.9
2022-09-14T00:51:39.206Z,5.9
2022-09-14T00:52:47.735Z,5.4
2022-09-14T00:53:56.067Z,5.4
2022-09-14T00:55:04.508Z,5.4
2022-09-14T00:56:12.932Z,6
2022-09-14T00:57:21.256Z,6
2022-09-14T00:58:29.578Z,6
2022-09-14T00:59:38.115Z,5.3
2022-09-14T01:00:46.520Z,5.3
2022-09-14T01:01:54.804Z,5.3
2022-09-14T01:03:03.301Z,6.7
2022-09-14T01:04:11.625Z,6.7
2022-09-14T01:05:19.965Z,6.7
2022-09-14T01:06:28.495Z,6.2
2022-09-14T01:07:36.808Z,6.2
2022-09-14T01:08:45.132Z,6.2
2022-09-14T01:09:53.680Z,7.1
2022-09-14T01:11:02.095Z,7.1
2022-09-14T01:12:10.313Z,7.1
2022-09-14T01:13:18.836Z,7.4
2022-09-14T01:14:27.170Z,7.4
2022-09-14T01:15:35.501Z,7.4
2022-09-14T01:16:44.238Z,7
2022-09-14T01:17:52.359Z,7
2022-09-14T01:19:00.683Z,7
2022-09-14T01:20:09.247Z,7.2
2022-09-14T01:21:17.546Z,7.2
2022-09-14T01:22:25.877Z,7.2
2022-09-14T01:23:34.426Z,7.5
2022-09-14T01:24:42.771Z,7.5
2022-09-14T01:25:51.103Z,7.5
2022-09-14T01:26:59.744Z,6.3
2022-09-14T01:28:07.952Z,6.3
2022-09-14T01:29:16.270Z,6.3
2022-09-14T01:30:24.802Z,7.7
2022-09-14T01:31:33.164Z,7.7
2022-09-14T01:32:41.450Z,7.7
2022-09-14T01:33:50.016Z,7.3
2022-09-14T01:34:58.318Z,7.3
2022-09-14T01:36:06.637Z,7.3
2022-09-14T01:37:15.166Z,6.1
2022-09-14T01:38:23.503Z,6.1
2022-09-14T01:39:31.831Z,6.1
2022-09-14T01:40:40.366Z,6.7
2022-09-14T01:41:48.690Z,6.7
2022-09-14T01:42:57.056Z,6.7
2022-09-14T01:44:05.558Z,6.8
2022-09-14T01:45:13.901Z,6.8
2022-09-14T01:46:22.208Z,6.8
2022-09-14T01:47:30.760Z,7.4
2022-09-14T01:48:39.141Z,7.4
2022-09-14T01:49:47.418Z,7.4
2022-09-14T01:50:55.940Z,7.8
2022-09-14T01:52:04.254Z,7.8
2022-09-14T01:53:12.572Z,7.8
2022-09-14T01:54:21.111Z,8.1
2022-09-14T01:55:29.443Z,8.1
2022-09-14T01:56:37.758Z,8.1
2022-09-14T01:57:46.286Z,8.3
2022-09-14T01:58:54.628Z,8.3
2022-09-14T02:00:03.022Z,8.3
2022-09-14T02:01:11.596Z,8.7
2022-09-14T02:02:19.848Z,8.7
2022-09-14T02:03:28.107Z,8.7
2022-09-14T02:04:36.643Z,7.3
2022-09-14T02:05:44.960Z,7.3
2022-09-14T02:06:53.283Z,7.3
2022-09-14T02:08:01.801Z,6.7
2022-09-14T02:09:10.115Z,6.7
2022-09-14T02:10:18.438Z,6.7
2022-09-14T02:11:26.975Z,7.2
2022-09-14T02:12:35.300Z,7.2
2022-09-14T02:13:43.690Z,7.2
2022-09-14T02:14:52.266Z,6.8
2022-09-14T02:16:00.556Z,6.8
2022-09-14T02:17:08.809Z,6.8
2022-09-14T02:18:17.337Z,8
2022-09-14T02:19:25.665Z,8
2022-09-14T02:20:33.987Z,8
2022-09-14T02:21:42.502Z,8.3
2022-09-14T02:22:50.839Z,8.3
2022-09-14T02:23:59.192Z,8.3
2022-09-14T02:25:07.747Z,8.8
2022-09-14T02:26:16.066Z,8.8
2022-09-14T02:27:24.405Z,8.8
2022-09-14T02:28:32.949Z,7.3
2022-09-14T02:29:41.276Z,7.3
2022-09-14T02:30:49.615Z,7.3
2022-09-14T02:31:58.155Z,8
2022-09-14T02:33:06.453Z,8
2022-09-14T02:34:14.789Z,8
2022-09-14T02:35:23.336Z,10.2
2022-09-14T02:36:31.652Z,10.2
2022-09-14T02:37:39.970Z,10.2
2022-09-14T02:38:48.502Z,8.2
2022-09-14T02:39:56.897Z,8.2
2022-09-14T02:41:05.167Z,8.2
2022-09-14T02:42:13.708Z,7.1
2022-09-14T02:43:22.069Z,7.1
2022-09-14T02:44:30.430Z,7.1
2022-09-14T02:45:38.991Z,7.1
2022-09-14T02:46:47.416Z,7.1
2022-09-14T02:47:55.666Z,7.1
2022-09-14T02:49:04.203Z,10.1
2022-09-14T02:50:12.535Z,10.1
2022-09-14T02:51:20.861Z,10.1
2022-09-14T02:52:29.394Z,8.5
2022-09-14T02:53:37.720Z,8.5
2022-09-14T02:54:46.055Z,8.5
2022-09-14T02:55:54.583Z,7.5
2022-09-14T02:57:02.891Z,7.5
2022-09-14T02:58:11.216Z,7.5
2022-09-14T02:59:19.776Z,9.1
2022-09-14T03:00:28.154Z,9.1
2022-09-14T03:01:36.508Z,9.1
2022-09-14T03:02:45.063Z,9.2
2022-09-14T03:03:53.283Z,9.2
2022-09-14T03:05:01.603Z,9.2
2022-09-14T03:06:10.144Z,8.5
2022-09-14T03:07:18.469Z,8.5
2022-09-14T03:08:26.821Z,8.5
2022-09-14T03:09:35.349Z,9.4
2022-09-14T03:10:43.671Z,9.4
2022-09-14T03:11:51.994Z,9.4
2022-09-14T03:13:00.517Z,9.1
2022-09-14T03:14:08.852Z,9.1
2022-09-14T03:15:17.183Z,9.1
2022-09-14T03:16:25.756Z,8.6
2022-09-14T03:17:34.035Z,8.6
2022-09-14T03:18:42.391Z,8.6
2022-09-14T03:19:50.896Z,9
2022-09-14T03:20:59.229Z,9
2022-09-14T03:22:07.536Z,9
2022-09-14T03:23:16.081Z,9.2
2022-09-14T03:24:24.421Z,9.2
2022-09-14T03:25:32.741Z,9.2
2022-09-14T03:26:41.281Z,8
2022-09-14T03:27:49.606Z,8
2022-09-14T03:28:57.928Z,8
2022-09-14T03:30:06.470Z,7.8
2022-09-14T03:31:14.872Z,7.8
2022-09-14T03:32:23.156Z,7.8
2022-09-14T03:33:31.693Z,7.9
2022-09-14T03:34:40.111Z,7.9
2022-09-14T03:35:48.329Z,7.9
2022-09-14T03:36:56.860Z,8.5
2022-09-14T03:38:05.190Z,8.5
2022-09-14T03:39:13.510Z,8.5
2022-09-14T03:40:22.355Z,7.4
2022-09-14T03:41:30.385Z,7.4
2022-09-14T03:42:38.709Z,7.4
2022-09-14T03:43:47.267Z,7.3
2022-09-14T03:44:55.566Z,7.3
2022-09-14T03:46:03.962Z,7.3
2022-09-14T03:47:12.438Z,8
2022-09-14T03:48:20.765Z,8
2022-09-14T03:49:30.681Z,8
2022-09-14T03:50:39.259Z,9.2
2022-09-14T03:51:47.555Z,9.2
2022-09-14T03:52:55.888Z,9.2
2022-09-14T03:54:04.418Z,8.4
2022-09-14T03:55:12.740Z,8.4
2022-09-14T03:56:21.072Z,8.4
2022-09-14T03:57:29.595Z,9.4
2022-09-14T03:58:38.761Z,9.4
2022-09-14T03:59:47.086Z,9.4
2022-09-14T04:01:00.460Z,11.1
2022-09-14T04:02:06.661Z,11.1
2022-09-14T04:03:15.642Z,11.1
2022-09-14T04:04:24.099Z,9.4
2022-09-14T04:05:32.468Z,9.4
2022-09-14T04:06:40.863Z,9.4
2022-09-14T04:07:49.367Z,10
2022-09-14T04:08:57.712Z,10
2022-09-14T04:10:06.054Z,10
2022-09-14T04:11:14.588Z,12.1
2022-09-14T04:12:22.959Z,12.1
2022-09-14T04:13:31.282Z,12.1
2022-09-14T04:14:39.880Z,10.6
2022-09-14T04:15:48.188Z,10.6
2022-09-14T04:16:56.536Z,10.6
2022-09-14T04:18:13.024Z,10
2022-09-14T04:19:21.030Z,10
2022-09-14T04:20:29.366Z,10
2022-09-14T04:21:37.892Z,9.4
2022-09-14T04:22:46.262Z,9.4
2022-09-14T04:24:14.966Z,9.4
2022-09-14T04:25:03.989Z,9.9
2022-09-14T04:26:12.308Z,9.9
2022-09-14T04:27:20.624Z,9.9
2022-09-14T04:28:29.140Z,8.3
2022-09-14T04:29:37.466Z,8.3
2022-09-14T04:30:45.803Z,8.3
2022-09-14T04:31:54.345Z,45.400002
2022-09-14T04:33:02.665Z,45.400002
2022-09-14T04:34:11.000Z,45.400002
2022-09-14T04:35:19.532Z,19
2022-09-14T04:36:27.868Z,19
2022-09-14T04:37:36.234Z,19
2022-09-14T04:38:44.780Z,8.6
2022-09-14T04:39:53.090Z,8.6
2022-09-14T04:41:01.405Z,8.6
2022-09-14T04:42:09.961Z,7.4
2022-09-14T04:43:18.290Z,7.4
2022-09-14T04:44:26.636Z,7.4
2022-09-14T04:45:35.181Z,6.9
2022-09-14T04:46:46.776Z,6.9
2022-09-14T04:47:51.849Z,6.9
2022-09-14T04:49:00.380Z,6.3
2022-09-14T04:50:08.714Z,6.3
2022-09-14T04:51:17.025Z,6.3
2022-09-14T04:52:25.557Z,5.4
2022-09-14T04:53:33.895Z,5.4
2022-09-14T04:54:42.230Z,5.4
2022-09-14T04:55:50.759Z,7.3
2022-09-14T04:56:59.094Z,7.3
2022-09-14T04:58:07.451Z,7.3
2022-09-14T04:59:15.986Z,9.1
2022-09-14T05:00:24.322Z,9.1
2022-09-14T05:01:32.688Z,9.1
2022-09-14T05:02:41.310Z,9.3
2022-09-14T05:03:49.610Z,9.3
2022-09-14T05:04:57.874Z,9.3
2022-09-14T05:06:06.395Z,8.8
2022-09-14T05:07:14.737Z,8.8
2022-09-14T05:08:23.091Z,8.8
2022-09-14T05:09:31.633Z,6.2
2022-09-14T05:10:39.974Z,6.2
2022-09-14T05:11:48.260Z,6.2
2022-09-14T05:12:56.790Z,6
2022-09-14T05:14:05.123Z,6
2022-09-14T05:15:13.450Z,6
2022-09-14T05:16:22.070Z,5.6
2022-09-14T05:17:30.310Z,5.6
2022-09-14T05:18:38.639Z,5.6
2022-09-14T05:19:47.167Z,6
2022-09-14T05:20:55.531Z,6
2022-09-14T05:22:03.882Z,6
2022-09-14T05:23:12.416Z,5
2022-09-14T05:24:20.739Z,5
2022-09-14T05:25:29.063Z,5
2022-09-14T05:26:37.697Z,6.2
2022-09-14T05:27:45.934Z,6.2
2022-09-14T05:28:54.291Z,6.2
2022-09-14T05:30:02.824Z,5
2022-09-14T05:31:11.242Z,5
2022-09-14T05:32:19.492Z,5
2022-09-14T05:33:28.032Z,4.5
2022-09-14T05:34:36.402Z,4.5
2022-09-14T05:35:44.747Z,4.5
2022-09-14T05:36:53.297Z,5.2
2022-09-14T05:38:01.652Z,5.2
2022-09-14T05:39:09.994Z,5.2
2022-09-14T05:40:18.580Z,4.7
2022-09-14T05:41:26.868Z,4.7
2022-09-14T05:42:35.215Z,4.7
2022-09-14T05:43:43.728Z,5.3
2022-09-14T05:44:52.076Z,5.3
2022-09-14T05:46:00.489Z,5.3
2022-09-14T05:47:08.961Z,6.3
2022-09-14T05:48:17.314Z,6.3
2022-09-14T05:49:25.670Z,6.3
2022-09-14T05:50:34.187Z,171.5
2022-09-14T05:51:42.526Z,171.5
2022-09-14T05:52:50.850Z,171.5
2022-09-14T05:53:59.387Z,44.599998
2022-09-14T05:55:07.713Z,44.599998
2022-09-14T05:56:16.037Z,44.599998
2022-09-14T05:57:24.590Z,72.300003
2022-09-14T05:58:32.988Z,72.300003
2022-09-14T05:59:41.248Z,72.300003
2022-09-14T06:00:49.867Z,5.4
2022-09-14T06:01:58.263Z,5.4
2022-09-14T06:03:06.524Z,5.4
2022-09-14T06:04:15.073Z,6.9
2022-09-14T06:05:23.406Z,6.9
2022-09-14T06:06:31.705Z,6.9
2022-09-14T06:07:40.281Z,6.3
2022-09-14T06:08:48.600Z,6.3
2022-09-14T06:09:56.931Z,6.3
2022-09-14T06:11:05.455Z,5.7
2022-09-14T06:12:13.791Z,5.7
2022-09-14T06:13:22.133Z,5.7
2022-09-14T06:14:30.779Z,6.3
2022-09-14T06:15:38.962Z,6.3
2022-09-14T06:16:47.313Z,6.3
2022-09-14T06:17:55.835Z,5.6
2022-09-14T06:19:04.165Z,5.6
2022-09-14T06:20:12.488Z,5.6
2022-09-14T06:21:21.017Z,5.8
2022-09-14T06:22:29.344Z,5.8
2022-09-14T06:23:37.719Z,5.8
2022-09-14T06:24:46.232Z,5
2022-09-14T06:25:54.565Z,5
2022-09-14T06:27:02.892Z,5
2022-09-14T06:28:11.427Z,4.6
2022-09-14T06:29:19.764Z,4.6
2022-09-14T06:30:28.242Z,4.6
2022-09-14T06:31:36.698Z,5.8
2022-09-14T06:32:45.020Z,5.8
2022-09-14T06:33:53.358Z,5.8
2022-09-14T06:35:01.875Z,5.9
2022-09-14T06:36:10.235Z,5.9
2022-09-14T06:37:18.573Z,5.9
2022-09-14T06:38:27.122Z,6.3
2022-09-14T06:39:35.434Z,6.3
2022-09-14T06:40:43.772Z,6.3
2022-09-14T06:41:52.336Z,5.6
2022-09-14T06:43:00.679Z,5.6
2022-09-14T06:44:09.020Z,5.6
2022-09-14T06:45:17.570Z,6.5
2022-09-14T06:46:25.933Z,6.5
2022-09-14T06:47:34.244Z,6.5
2022-09-14T06:48:42.792Z,8.4
2022-09-14T06:49:51.140Z,8.4
2022-09-14T06:50:59.462Z,8.4
2022-09-14T06:52:07.995Z,6.6
2022-09-14T06:53:16.321Z,6.6
2022-09-14T06:54:24.699Z,6.6
2022-09-14T06:55:33.266Z,5.6
2022-09-14T06:56:41.607Z,5.6
2022-09-14T06:57:49.962Z,5.6
2022-09-14T06:58:58.507Z,9.1
2022-09-14T07:00:06.900Z,9.1
2022-09-14T07:01:15.232Z,9.1
2022-09-14T07:02:23.873Z,7.3
2022-09-14T07:03:32.120Z,7.3
2022-09-14T07:04:40.458Z,7.3
2022-09-14T07:05:49.033Z,6.6
2022-09-14T07:06:57.394Z,6.6
2022-09-14T07:08:09.020Z,6.6
2022-09-14T07:09:14.291Z,4.1
2022-09-14T07:10:22.616Z,4.1
2022-09-14T07:11:30.957Z,4.1
2022-09-14T07:12:39.504Z,4.1
2022-09-14T07:13:47.840Z,4.1
2022-09-14T07:14:56.176Z,4.1
2022-09-14T07:16:04.737Z,2.8
2022-09-14T07:17:13.110Z,2.8
2022-09-14T07:18:21.459Z,2.8
2022-09-14T07:19:30.004Z,2.2
2022-09-14T07:20:38.356Z,2.2
2022-09-14T07:21:46.681Z,2.2
2022-09-14T07:22:55.211Z,8
2022-09-14T07:24:03.574Z,8
2022-09-14T07:25:11.922Z,8
2022-09-14T07:26:20.461Z,3.7
2022-09-14T07:27:28.789Z,3.7
2022-09-14T07:28:37.160Z,3.7
2022-09-14T07:29:45.706Z,3.9
2022-09-14T07:30:58.390Z,3.9
2022-09-14T07:32:02.378Z,3.9
2022-09-14T07:33:10.921Z,2.9
2022-09-14T07:34:19.290Z,2.9
2022-09-14T07:35:27.583Z,2.9
2022-09-14T07:36:36.114Z,3
2022-09-14T07:37:44.456Z,3
2022-09-14T07:38:53.419Z,3
2022-09-14T07:40:01.392Z,4.4
2022-09-14T07:41:09.679Z,4.4
2022-09-14T07:42:18.029Z,4.4
2022-09-14T07:43:26.568Z,4.7
2022-09-14T07:44:34.924Z,4.7
2022-09-14T07:45:43.285Z,4.7
2022-09-14T07:46:51.808Z,2.7
2022-09-14T07:48:00.130Z,2.7
2022-09-14T07:49:08.467Z,2.7
2022-09-14T07:50:17.026Z,4.6
2022-09-14T07:51:25.326Z,4.6
2022-09-14T07:52:38.066Z,4.6
2022-09-14T07:53:42.216Z,4.5
2022-09-14T07:54:50.533Z,4.5
2022-09-14T07:55:58.869Z,4.5
2022-09-14T07:57:07.443Z,1.8
2022-09-14T07:58:15.786Z,1.8
2022-09-14T07:59:35.398Z,1.8
2022-09-14T08:00:32.639Z,2
2022-09-14T08:01:41.076Z,2
2022-09-14T08:02:49.414Z,2
2022-09-14T08:03:58.002Z,2
2022-09-14T08:05:06.248Z,2
2022-09-14T08:06:14.689Z,2
2022-09-14T08:07:23.121Z,4.4
2022-09-14T08:08:31.442Z,4.4
2022-09-14T08:09:39.792Z,4.4
2022-09-14T08:10:48.314Z,2.4
2022-09-14T08:11:56.660Z,2.4
2022-09-14T08:13:04.997Z,2.4
2022-09-14T08:14:13.533Z,2.6
2022-09-14T08:15:25.189Z,2.6
2022-09-14T08:16:30.285Z,2.6
2022-09-14T08:17:38.731Z,3.4
2022-09-14T08:18:47.056Z,3.4
2022-09-14T08:19:55.371Z,3.4
2022-09-14T08:21:03.904Z,4.4
2022-09-14T08:22:12.327Z,4.4
2022-09-14T08:23:20.564Z,4.4
2022-09-14T08:24:29.085Z,1.8
2022-09-14T08:25:37.430Z,1.8
2022-09-14T08:26:45.758Z,1.8
2022-09-14T08:27:54.289Z,2.2
2022-09-14T08:29:02.613Z,2.2
2022-09-14T08:30:10.956Z,2.2
2022-09-14T08:31:19.528Z,2
2022-09-14T08:32:27.843Z,2
2022-09-14T08:33:36.167Z,2
2022-09-14T08:34:44.701Z,2
2022-09-14T08:35:57.650Z,2
2022-09-14T08:37:01.361Z,2
2022-09-14T08:38:09.911Z,1.1
2022-09-14T08:39:18.213Z,1.1
2022-09-14T08:40:26.617Z,1.1
2022-09-14T08:41:35.090Z,1.7
2022-09-14T08:42:43.409Z,1.7
2022-09-14T08:43:51.725Z,1.7
2022-09-14T08:45:00.275Z,2.4
2022-09-14T08:46:08.659Z,2.4
2022-09-14T08:47:16.947Z,2.4
2022-09-14T08:48:25.518Z,8.4
2022-09-14T08:49:33.830Z,8.4
2022-09-14T08:50:42.172Z,8.4
2022-09-14T08:51:50.721Z,3.2
2022-09-14T08:52:59.074Z,3.2
2022-09-14T08:54:07.435Z,3.2
2022-09-14T08:55:15.966Z,1.8
2022-09-14T08:56:24.309Z,1.8
2022-09-14T08:57:32.651Z,1.8
2022-09-14T08:58:46.415Z,1.5
2022-09-14T08:59:49.573Z,1.5
2022-09-14T09:00:58.006Z,1.5
2022-09-14T09:02:06.445Z,1.3
2022-09-14T09:03:14.783Z,1.3
2022-09-14T09:04:23.200Z,1.3
2022-09-14T09:05:31.673Z,1.5
2022-09-14T09:06:39.981Z,1.5
2022-09-14T09:07:48.319Z,1.5
2022-09-14T09:08:56.891Z,1.8
2022-09-14T09:10:05.365Z,1.8
2022-09-14T09:11:13.570Z,1.8
2022-09-14T09:12:22.108Z,2.2
2022-09-14T09:13:30.428Z,2.2
2022-09-14T09:14:38.751Z,2.2
2022-09-14T09:15:47.302Z,1.3
2022-09-14T09:16:55.613Z,1.3
2022-09-14T09:18:03.932Z,1.3
2022-09-14T09:19:12.462Z,1.9
2022-09-14T09:20:20.789Z,1.9
2022-09-14T09:21:29.109Z,1.9
2022-09-14T09:22:37.663Z,2.5
2022-09-14T09:23:45.980Z,2.5
2022-09-14T09:24:54.312Z,2.5
2022-09-14T09:26:02.874Z,1.4
2022-09-14T09:27:11.181Z,1.4
2022-09-14T09:28:19.504Z,1.4
2022-09-14T09:29:28.053Z,2.2
2022-09-14T09:30:36.402Z,2.2
2022-09-14T09:31:44.742Z,2.2
2022-09-14T09:32:53.232Z,1.6
2022-09-14T09:34:01.568Z,1.6
2022-09-14T09:35:09.882Z,1.6
2022-09-14T09:36:18.411Z,1.6
2022-09-14T09:37:26.729Z,1.6
2022-09-14T09:38:35.038Z,1.6
2022-09-14T09:39:43.651Z,2.9
2022-09-14T09:40:51.913Z,2.9
2022-09-14T09:42:00.247Z,2.9
2022-09-14T09:43:08.756Z,2.3
2022-09-14T09:44:17.114Z,2.3
2022-09-14T09:45:25.428Z,2.3
2022-09-14T09:46:34.010Z,2.3
2022-09-14T09:47:42.293Z,2.3
2022-09-14T09:48:50.717Z,2.3
2022-09-14T09:49:59.166Z,1.7
2022-09-14T09:51:07.478Z,1.7
2022-09-14T09:52:15.826Z,1.7
2022-09-14T09:53:24.359Z,2.4
2022-09-14T09:54:32.669Z,2.4
2022-09-14T09:55:41.036Z,2.4
2022-09-14T09:56:49.546Z,2
2022-09-14T09:57:57.902Z,2
2022-09-14T09:59:06.214Z,2
2022-09-14T10:00:14.791Z,3.1
2022-09-14T10:01:23.206Z,3.1
2022-09-14T10:02:31.407Z,3.1
2022-09-14T10:03:39.944Z,1.9
2022-09-14T10:04:48.236Z,1.9
2022-09-14T10:05:56.554Z,1.9
2022-09-14T10:07:05.102Z,2.6
2022-09-14T10:08:13.426Z,2.6
2022-09-14T10:09:21.759Z,2.6
2022-09-14T10:10:30.294Z,2.6
2022-09-14T10:11:38.662Z,2.6
2022-09-14T10:12:47.006Z,2.6
2022-09-14T10:13:55.547Z,1.6
2022-09-14T10:15:03.861Z,1.6
2022-09-14T10:16:12.234Z,1.6
2022-09-14T10:17:20.711Z,2.6
2022-09-14T10:18:29.040Z,2.6
2022-09-14T10:19:37.363Z,2.6
2022-09-14T10:20:45.895Z,2.4
2022-09-14T10:21:54.209Z,2.4
2022-09-14T10:23:02.523Z,2.4
2022-09-14T10:24:11.074Z,2.6
2022-09-14T10:25:19.396Z,2.6
2022-09-14T10:26:27.734Z,2.6
2022-09-14T10:27:38.157Z,10.7
2022-09-14T10:28:44.616Z,10.7
2022-09-14T10:29:52.979Z,10.7
2022-09-14T10:31:01.567Z,4.4
2022-09-14T10:32:09.816Z,4.4
2022-09-14T10:33:18.159Z,4.4
2022-09-14T10:34:26.751Z,2.4
2022-09-14T10:35:35.023Z,2.4
2022-09-14T10:36:43.355Z,2.4
2022-09-14T10:37:51.893Z,1.9
2022-09-14T10:39:00.212Z,1.9
2022-09-14T10:40:08.604Z,1.9
2022-09-14T10:41:17.089Z,2.4
2022-09-14T10:42:25.443Z,2.4
2022-09-14T10:43:33.782Z,2.4
2022-09-14T10:44:42.335Z,2.1
2022-09-14T10:45:50.704Z,2.1
2022-09-14T10:47:02.636Z,2.1
2022-09-14T10:48:07.573Z,1.9
2022-09-14T10:49:15.902Z,1.9
2022-09-14T10:50:24.226Z,1.9
2022-09-14T10:51:32.755Z,2.3
2022-09-14T10:52:41.073Z,2.3
2022-09-14T10:53:49.420Z,2.3
2022-09-14T10:54:57.946Z,4.2
2022-09-14T10:56:06.278Z,4.2
2022-09-14T10:57:14.586Z,4.2
2022-09-14T10:58:24.486Z,3.6
2022-09-14T10:59:31.473Z,3.6
2022-09-14T11:00:39.784Z,3.6
2022-09-14T11:01:48.507Z,1.6
2022-09-14T11:02:56.759Z,1.6
2022-09-14T11:04:04.994Z,1.6
2022-09-14T11:05:13.569Z,2.9
2022-09-14T11:06:21.880Z,2.9
2022-09-14T11:07:30.207Z,2.9
2022-09-14T11:08:38.756Z,1.9
2022-09-14T11:09:47.078Z,1.9
2022-09-14T11:10:55.408Z,1.9
2022-09-14T11:12:03.934Z,1.9
2022-09-14T11:13:12.249Z,1.9
2022-09-14T11:14:20.598Z,1.9
2022-09-14T11:15:29.118Z,2.6
2022-09-14T11:16:37.447Z,2.6
2022-09-14T11:17:45.796Z,2.6
2022-09-14T11:18:54.309Z,1.6
2022-09-14T11:20:02.646Z,1.6
2022-09-14T11:21:10.954Z,1.6
2022-09-14T11:22:19.500Z,1.9
2022-09-14T11:23:27.814Z,1.9
2022-09-14T11:24:36.164Z,1.9
2022-09-14T11:25:44.677Z,1.6
2022-09-14T11:26:53.002Z,1.6
2022-09-14T11:28:01.353Z,1.6
2022-09-14T11:29:09.902Z,2.2
2022-09-14T11:30:18.236Z,2.2
2022-09-14T11:31:26.700Z,2.2
2022-09-14T11:32:35.119Z,2
2022-09-14T11:33:43.563Z,2
2022-09-14T11:34:51.809Z,2
2022-09-14T11:36:00.350Z,1.3
2022-09-14T11:37:08.688Z,1.3
2022-09-14T11:38:17.010Z,1.3
2022-09-14T11:39:25.542Z,1.9
2022-09-14T11:40:33.957Z,1.9
2022-09-14T11:41:42.222Z,1.9
2022-09-14T11:42:50.749Z,2
2022-09-14T11:43:59.095Z,2
2022-09-14T11:45:07.442Z,2
2022-09-14T11:46:16.017Z,1.7
2022-09-14T11:47:24.297Z,1.7
2022-09-14T11:48:47.963Z,1.7
2022-09-14T11:49:41.293Z,1.5
2022-09-14T11:50:49.518Z,1.5
2022-09-14T11:51:57.895Z,1.5
2022-09-14T11:53:06.427Z,1.3
2022-09-14T11:54:14.774Z,1.3
2022-09-14T11:55:23.107Z,1.3
2022-09-14T11:56:31.636Z,1.4
2022-09-14T11:57:39.967Z,1.4
2022-09-14T11:58:48.368Z,1.4
2022-09-14T11:59:56.856Z,2.2
2022-09-14T12:01:05.214Z,2.2
2022-09-14T12:02:13.584Z,2.2
2022-09-14T12:03:22.157Z,1.6
2022-09-14T12:04:30.421Z,1.6
2022-09-14T12:05:38.990Z,1.6
2022-09-14T12:06:47.298Z,1.7
2022-09-14T12:07:55.626Z,1.7
2022-09-14T12:09:03.960Z,1.7
2022-09-14T12:10:12.509Z,1.9
2022-09-14T12:11:20.837Z,1.9
2022-09-14T12:12:29.168Z,1.9
2022-09-14T12:13:37.725Z,2.3
2022-09-14T12:14:46.048Z,2.3
2022-09-14T12:15:54.479Z,2.3
2022-09-14T12:17:12.983Z,2.2
2022-09-14T12:18:11.264Z,2.2
2022-09-14T12:19:19.603Z,2.2
2022-09-14T12:20:28.160Z,2.2
2022-09-14T12:21:36.577Z,2.2
2022-09-14T12:22:48.120Z,2.2
2022-09-14T12:23:53.356Z,2.4
2022-09-14T12:25:01.689Z,2.4
2022-09-14T12:26:10.013Z,2.4
2022-09-14T12:27:18.558Z,2.3
2022-09-14T12:28:26.874Z,2.3
2022-09-14T12:29:35.226Z,2.3
2022-09-14T12:30:43.809Z,4.3
2022-09-14T12:31:52.096Z,4.3
2022-09-14T12:33:00.423Z,4.3
2022-09-14T12:34:08.969Z,2.6
2022-09-14T12:35:17.308Z,2.6
2022-09-14T12:36:25.641Z,2.6
2022-09-14T12:37:34.298Z,2.6
2022-09-14T12:38:42.527Z,2.6
2022-09-14T12:39:50.921Z,2.6
2022-09-14T12:40:59.417Z,3.2
2022-09-14T12:42:07.731Z,3.2
2022-09-14T12:43:16.061Z,3.2
2022-09-14T12:44:26.295Z,3.5
2022-09-14T12:45:34.655Z,3.5
2022-09-14T12:46:43.004Z,3.5
2022-09-14T12:47:51.555Z,3.3
2022-09-14T12:48:59.899Z,3.3
2022-09-14T12:50:08.239Z,3.3
2022-09-14T12:51:16.758Z,3.6
2022-09-14T12:52:25.091Z,3.6
2022-09-14T12:53:33.440Z,3.6
2022-09-14T12:54:41.977Z,3.9
2022-09-14T12:55:50.327Z,3.9
2022-09-14T12:56:58.636Z,3.9
2022-09-14T12:58:07.190Z,4.2
2022-09-14T12:59:15.515Z,4.2
2022-09-14T13:00:23.859Z,4.2
2022-09-14T13:01:32.474Z,3.7
2022-09-14T13:02:40.876Z,3.7
2022-09-14T13:03:49.086Z,3.7
2022-09-14T13:04:57.623Z,3.9
2022-09-14T13:06:05.958Z,3.9
2022-09-14T13:07:14.294Z,3.9
2022-09-14T13:08:22.839Z,4.4
2022-09-14T13:09:31.200Z,4.4
2022-09-14T13:10:39.497Z,4.4
2022-09-14T13:11:48.056Z,4.9
2022-09-14T13:12:56.390Z,4.9
2022-09-14T13:14:04.743Z,4.9
2022-09-14T13:15:13.269Z,4.5
2022-09-14T13:16:21.642Z,4.5
2022-09-14T13:17:29.942Z,4.5
2022-09-14T13:18:38.491Z,6.1
2022-09-14T13:19:46.826Z,6.1
2022-09-14T13:20:55.146Z,6.1
2022-09-14T13:22:03.684Z,5
2022-09-14T13:23:12.010Z,5
2022-09-14T13:24:20.333Z,5
2022-09-14T13:25:29.034Z,5.2
2022-09-14T13:26:37.211Z,5.2
2022-09-14T13:27:45.531Z,5.2
2022-09-14T13:28:54.064Z,5.6
2022-09-14T13:30:02.406Z,5.6
2022-09-14T13:31:10.772Z,5.6
2022-09-14T13:32:19.259Z,5.4
2022-09-14T13:33:27.597Z,5.4
2022-09-14T13:34:35.915Z,5.4
2022-09-14T13:35:44.445Z,5.5
2022-09-14T13:36:52.774Z,5.5
2022-09-14T13:38:01.079Z,5.5
2022-09-14T13:39:09.613Z,6.9
2022-09-14T13:40:18.205Z,6.9
2022-09-14T13:41:26.420Z,6.9
2022-09-14T13:42:34.913Z,5.7
2022-09-14T13:43:43.307Z,5.7
2022-09-14T13:44:51.610Z,5.7
2022-09-14T13:46:00.267Z,6.6
2022-09-14T13:47:08.475Z,6.6
2022-09-14T13:48:16.814Z,6.6
2022-09-14T13:49:25.384Z,6
2022-09-14T13:50:33.704Z,6
2022-09-14T13:51:42.039Z,6
2022-09-14T13:53:01.598Z,5.8
2022-09-14T13:53:58.904Z,5.8
2022-09-14T13:55:07.227Z,5.8
2022-09-14T13:56:15.770Z,6.4
2022-09-14T13:57:24.198Z,6.4
2022-09-14T13:58:35.553Z,6.4
2022-09-14T13:59:40.962Z,6.9
2022-09-14T14:00:49.287Z,6.9
2022-09-14T14:01:57.677Z,6.9
2022-09-14T14:03:06.162Z,6.2
2022-09-14T14:04:18.510Z,6.2
2022-09-14T14:05:22.789Z,6.2
2022-09-14T14:06:31.333Z,5.9
2022-09-14T14:07:39.685Z,5.9
2022-09-14T14:08:47.996Z,5.9
2022-09-14T14:09:56.546Z,7
2022-09-14T14:11:04.867Z,7
2022-09-14T14:12:13.204Z,7
2022-09-14T14:13:21.832Z,12.8
2022-09-14T14:14:31.458Z,12.8
2022-09-14T14:15:38.401Z,12.8
2022-09-14T14:16:46.978Z,8.9
2022-09-14T14:17:55.293Z,8.9
2022-09-14T14:19:03.599Z,8.9
2022-09-14T14:20:12.158Z,8.4
2022-09-14T14:21:20.449Z,8.4
2022-09-14T14:22:28.784Z,8.4
2022-09-14T14:23:47.001Z,7.9
2022-09-14T14:25:09.468Z,7.9
2022-09-14T14:25:54.003Z,7.9
2022-09-14T14:27:02.530Z,7.8
2022-09-14T14:28:10.863Z,7.8
2022-09-14T14:29:19.225Z,7.8
2022-09-14T14:30:27.730Z,9.1
2022-09-14T15:03:55.818Z,0
2022-09-14T15:05:04.080Z,0
2022-09-14T15:06:12.416Z,0
2022-09-14T15:07:20.957Z,10.7
2022-09-14T15:08:29.246Z,10.7
2022-09-14T15:09:37.563Z,10.7
2022-09-14T15:10:46.089Z,95.5
2022-09-14T15:11:54.441Z,95.5
2022-09-14T15:13:02.750Z,95.5
2022-09-14T15:14:11.271Z,12.1
2022-09-14T15:15:19.594Z,12.1
2022-09-14T15:16:27.987Z,12.1
2022-09-14T15:17:36.452Z,10.2
2022-09-14T15:18:44.818Z,10.2
2022-09-14T15:19:53.177Z,10.2
2022-09-14T15:21:01.675Z,11.4
2022-09-14T15:22:09.980Z,11.4
2022-09-14T15:23:18.323Z,11.4
2022-09-14T15:24:26.880Z,9.1
2022-09-14T15:25:35.192Z,9.1
2022-09-14T15:26:43.536Z,9.1
2022-09-14T15:27:52.057Z,8.9
2022-09-14T15:29:00.374Z,8.9
2022-09-14T15:30:08.703Z,8.9
2022-09-14T15:31:17.287Z,8.2
2022-09-14T15:32:25.553Z,8.2
2022-09-14T15:33:33.856Z,8.2
2022-09-14T15:34:42.395Z,13.7
2022-09-14T15:35:50.742Z,13.7
2022-09-14T15:36:59.076Z,13.7
2022-09-14T15:38:07.623Z,22.5
2022-09-14T15:39:15.927Z,22.5
2022-09-14T15:40:24.288Z,22.5
2022-09-14T15:41:32.799Z,8.1
2022-09-14T15:42:41.123Z,8.1
2022-09-14T15:43:49.448Z,8.1
2022-09-14T15:44:57.965Z,7
2022-09-14T15:46:06.335Z,7
2022-09-14T15:47:14.622Z,7
2022-09-14T15:48:23.144Z,7.9
2022-09-14T15:49:31.483Z,7.9
2022-09-14T15:50:39.786Z,7.9
2022-09-14T15:51:48.450Z,9.5
2022-09-14T15:53:00.513Z,9.5
2022-09-14T15:54:04.969Z,9.5
2022-09-14T15:55:13.503Z,9.1
2022-09-14T15:56:21.830Z,9.1
2022-09-14T15:57:30.160Z,9.1
2022-09-14T15:58:38.699Z,9.1
2022-09-14T15:59:47.033Z,9.1
2022-09-14T16:00:55.418Z,9.1
2022-09-14T16:02:03.934Z,9.7
2022-09-14T16:03:12.278Z,9.7
2022-09-14T16:04:20.538Z,9.7
2022-09-14T16:05:29.069Z,10.5
2022-09-14T16:06:37.412Z,10.5
2022-09-14T16:07:45.819Z,10.5
2022-09-14T16:08:54.265Z,10.8
2022-09-14T16:10:02.601Z,10.8
2022-09-14T16:11:10.917Z,10.8
2022-09-14T16:12:19.466Z,10.5
2022-09-14T16:13:27.790Z,10.5
2022-09-14T16:14:36.153Z,10.5
2022-09-14T16:15:44.695Z,13.2
2022-09-14T16:16:53.099Z,13.2